METAR UND TAF INFORMATION

METAR FOR LFOB
ADDS - METARS form results

(0216 UTC 26 June 2022)
Data provider http://aviationweather.gov/metar/data/
 
METAR text: LFOB 260200Z AUTO 20004KT 170V230 CAVOK 13/12 Q1013 NOSIG
Conditions at: LFOB (BEAUVAIS/TILLE(A, FR) observed 0200 UTC 26 June 2022
Temperature: 13.0°C (55°F)
Dewpoint: 12.0°C (54°F) [RH = 94%]
Pressure (altimeter): 29.91 inches Hg (1013.0 mb)
Winds: from the SSW (200 degrees) at 5 MPH (4 knots; 2.1 m/s)
Visibility: 6 or more miles (10+ km)
Ceiling: ceiling and visibility are OK
Clouds: unknown
Weather: no significant weather observed at this time

METAR text: LFOB 260130Z AUTO 19004KT 140V230 CAVOK 13/12 Q1013 NOSIG
Conditions at: LFOB (BEAUVAIS/TILLE(A, FR) observed 0130 UTC 26 June 2022
Temperature: 13.0°C (55°F)
Dewpoint: 12.0°C (54°F) [RH = 94%]
Pressure (altimeter): 29.91 inches Hg (1013.0 mb)
Winds: from the S (190 degrees) at 5 MPH (4 knots; 2.1 m/s)
Visibility: 6 or more miles (10+ km)
Ceiling: ceiling and visibility are OK
Clouds: unknown
Weather: no significant weather observed at this time

Forecast for: LFOB (BEAUVAIS/TILLE(A, FR)
Text: TAF LFOB 252300Z 2600/2624 16008KT 9999 SCT035 BKN050
Forecast period: 0000 UTC 26 June 2022 to 0000 UTC 27 June 2022
Forecast type: FROM: standard forecast or significant change
Winds: from the SSE (160 degrees) at 9 MPH (8 knots; 4.1 m/s)
Visibility: 6 or more miles (10+ km)
Ceiling: 5000 feet AGL
Clouds: scattered clouds at 3500 feet AGL
broken clouds at 5000 feet AGL
Weather: no significant weather forecast for this period

 FLUGHAFENKARTE

 RUNWAY INFORMATION
Runway 04 Runway length 3625 ft Runway width 98 ft
Runway elevation 332 ft Runway displaced threshold 0 ft Runway heading 42
Runway 22 Runway length 3625 ft Runway width 98 ft
Runway elevation 359 ft Runway displaced threshold 0 ft Runway heading 222
Runway 13 Runway length 7972 ft Runway width 148 ft
Runway elevation 352 ft Runway displaced threshold 0 ft Runway heading 125
Runway 31 Runway length 7972 ft Runway width 148 ft
Runway elevation 297 ft Runway displaced threshold 0 ft Runway heading 305
Runway 13R Runway length 0 ft Runway width 0 ft
Runway elevation 359 ft Runway displaced threshold 0 ft Runway heading 0
Runway 31L Runway length 0 ft Runway width 0 ft
Runway elevation 359 ft Runway displaced threshold 0 ft Runway heading 0

 AIRPORT FREQUENCIES
Type APP Name BEAUVAIS A Frequency 119.9 MHZ
Type ATIS Name BEAUVAIS A Frequency 118.375 MHZ
Type TWR Name BEAUVAIS T Frequency 121.4 MHZ

 AIRPORT NEAR NAVIGATION AIDS
Type VOR Name Beauvais Frequency 115900 KHZ